ADDS METAR Data INFO
IDs: Format: Raw Decoded Include TAF

Data at: 0450 UTC 21 Feb 2018

KLRU 201515Z AUTO 27008KT 10SM BKN065 08/02 A2998 RMK AO2 T00810016
KLRU 201455Z AUTO 00000KT 10SM SCT049 OVC065 07/02 A2997 RMK AO2 T00740019
KLRU 201435Z AUTO 00000KT 10SM SCT047 SCT055 OVC065 07/02 A2995 RMK AO2 T00660016
KLRU 201415Z AUTO 00000KT 10SM SCT046 SCT055 OVC065 06/01 A2995 RMK AO2 T00610014
KLRU 201355Z AUTO 00000KT 10SM OVC065 06/02 A2995 RMK AO2 T00600015
KLRU 201335Z AUTO 24004KT 10SM OVC065 05/01 A2993 RMK AO2 T00530012
KLRU 201315Z AUTO 28004KT 10SM BKN065 06/01 A2992 RMK AO2 T00570011
KLRU 201255Z AUTO 25005KT 10SM BKN065 06/01 A2992 RMK AO2 T00630012
KLRU 201235Z AUTO 25007KT 10SM SCT065 06/01 A2991 RMK AO2 T00590011
KLRU 201215Z AUTO 25006KT 10SM CLR 06/01 A2990 RMK AO2 T00630011
KLRU 201155Z AUTO 24006KT 10SM SCT060 07/01 A2989 RMK AO2 T00670010 10111 20067
KLRU 201135Z AUTO 24007KT 10SM OVC060 08/01 A2988 RMK AO2 T00750008
KLRU 201115Z AUTO 25007KT 10SM OVC060 08/00 A2988 RMK AO2 T00770002
KLRU 201055Z AUTO 28003KT 10SM BKN060 08/M01 A2988 RMK AO2 T00801014
KLRU 201035Z AUTO 24007KT 10SM SCT060 09/M02 A2986 RMK AO2 T00911019
KLRU 201015Z AUTO 24011G18KT 10SM CLR 10/M02 A2986 RMK AO2 T00951025
KLRU 200955Z AUTO 23014G22KT 10SM CLR 10/M02 A2984 RMK AO2 T00971021
KLRU 200935Z AUTO 24018G25KT 10SM CLR 10/M01 A2983 RMK AO2 T00981014
KLRU 200915Z AUTO 24016G23KT 10SM CLR 10/00 A2983 RMK AO2 T00960000
KLRU 200855Z AUTO 22016G21KT 10SM CLR 10/01 A2983 RMK AO2 T00960005
KLRU 200835Z AUTO 22013KT 10SM CLR 10/00 A2983 RMK AO2 T01000000
KLRU 200815Z AUTO 22017G22KT 10SM CLR 10/00 A2983 RMK AO2 T01030003
KLRU 200755Z AUTO 22019G30KT 10SM CLR 11/00 A2983 RMK AO2 T01070001
KLRU 200735Z AUTO 22019G26KT 10SM CLR 11/01 A2982 RMK AO2 T01050006
KLRU 200715Z AUTO 21017G22KT 10SM CLR 11/01 A2982 RMK AO2 T01050012
KLRU 200655Z AUTO 22016G24KT 10SM CLR 11/01 A2982 RMK AO2 T01080014
KLRU 200635Z AUTO 22018G24KT 10SM CLR 11/02 A2982 RMK AO2 T01100015
KLRU 200615Z AUTO 22020G27KT 10SM CLR 11/02 A2982 RMK AO2 T01100018
KLRU 200555Z AUTO 22019G26KT 10SM CLR 11/02 A2982 RMK AO2 T01120021 10172 20112
KLRU 200535Z AUTO 21019G23KT 10SM CLR 11/03 A2981 RMK AO2 T01130025
KLRU 200515Z AUTO 22015G22KT 10SM CLR 12/03 A2982 RMK AO2 T01160025
KLRU 200455Z AUTO 21014G18KT 10SM CLR 12/03 A2981 RMK AO2 T01150031
KLRU 200435Z AUTO 21013KT 10SM CLR 12/04 A2981 RMK AO2 T01170035
KLRU 200415Z AUTO 21015G20KT 10SM CLR 12/04 A2980 RMK AO2 T01210037
KLRU 200355Z AUTO 22013KT 10SM CLR 12/04 A2980 RMK AO2 T01220037
KLRU 200335Z AUTO 22012G18KT 10SM CLR 13/02 A2979 RMK AO2 T01250018
KLRU 200315Z AUTO 22012KT 10SM CLR 13/02 A2978 RMK AO2 T01280020
KLRU 200255Z AUTO 23015G18KT 10SM CLR 13/02 A2978 RMK AO2 T01320020
KLRU 200235Z AUTO 23014G17KT 10SM CLR 14/02 A2976 RMK AO2 T01350016
KLRU 200215Z AUTO 23013G20KT 10SM CLR 14/02 A2975 RMK AO2 T01380015
KLRU 200155Z AUTO 23014G20KT 10SM CLR 14/02 A2974 RMK AO2 T01420015
KLRU 200135Z AUTO 23018G23KT 10SM CLR 15/01 A2974 RMK AO2 T01480013
KLRU 200115Z AUTO 23021G28KT 10SM CLR 15/02 A2973 RMK AO2 T01520015
KLRU 200055Z AUTO 23019G29KT 10SM SCT055 SCT070 16/03 A2972 RMK AO2 T01570025
KLRU 200035Z AUTO 23019G26KT 10SM CLR 16/03 A2972 RMK AO2 T01610028
KLRU 200015Z AUTO 23024G30KT 10SM CLR 17/02 A2972 RMK AO2 T01700017
KLRU 192355Z AUTO 23027G32KT 10SM CLR 17/03 A2972 RMK AO2 T01730030 10191 20155
KLRU 192335Z AUTO 22026G34KT 10SM SCT070 SCT090 17/03 A2972 RMK AO2 T01700029
KLRU 192315Z AUTO 22023G32KT 10SM SCT070 18/01 A2972 RMK AO2 T01840011
KLRU 192255Z AUTO 24022G30KT 10SM SCT070 18/01 A2972 RMK AO2 T01830006
KLRU 192235Z AUTO 23021G31KT 10SM SCT070 18/00 A2972 RMK AO2 T01820003
KLRU 192215Z AUTO 23021G32KT 10SM SCT075 SCT080 19/00 A2973 RMK AO2 T01900003
KLRU 192155Z AUTO 23022G29KT 10SM SCT070 19/00 A2973 RMK AO2 T01910001
KLRU 192135Z AUTO 24022G29KT 10SM SCT070 19/00 A2974 RMK AO2 T01910004
KLRU 192115Z AUTO 24026G30KT 10SM SCT070 19/00 A2974 RMK AO2 T01890002
KLRU 192055Z AUTO 24021G31KT 10SM CLR 18/00 A2975 RMK AO2 T01820000
KLRU 192035Z AUTO 23023G29KT 10SM SCT080 18/01 A2976 RMK AO2 T01820009
KLRU 192015Z AUTO 23019G26KT 10SM SCT085 18/02 A2977 RMK AO2 T01800017
KLRU 191955Z AUTO 22024G31KT 10SM CLR 17/02 A2979 RMK AO2 T01730016
KLRU 191935Z AUTO 22024G32KT 10SM CLR 18/01 A2980 RMK AO2 T01780014
KLRU 191915Z AUTO 22020G26KT 10SM CLR 17/01 A2981 RMK AO2 T01720014
KLRU 191855Z AUTO 23019G28KT 10SM SCT070 17/02 A2982 RMK AO2 T01670015
KLRU 191835Z AUTO 23025G30KT 10SM SCT070 SCT080 17/02 A2983 RMK AO2 T01680022
KLRU 191815Z AUTO 24022G28KT 10SM SCT050 SCT060 SCT080 16/03 A2984 RMK AO2 T01640029
KLRU 191755Z AUTO 22019G26KT 10SM SCT035 SCT042 SCT047 16/04 A2984 RMK AO2 T01550040 10156 20074
KLRU 191735Z AUTO 22014G18KT 10SM SCT033 SCT042 BKN048 15/06 A2985 RMK AO2 T01500057
KLRU 191715Z AUTO 21013KT 10SM SCT050 SCT065 15/07 A2985 RMK AO2 T01500070
KLRU 191655Z AUTO 21017G21KT 10SM BKN060 BKN065 14/07 A2985 RMK AO2 T01400066